Terminal Aerodrome Forecast
Issued by NWS Grand Forks, ND

Home | Current Version | Previous Version | Graphics & Text | Print | Product List | Glossary On
Versions: 1 2 3 4 5 6 7 8 9 10 11 12 13 14 15 16 17 18 19 20
506
FTUS43 KFGF 221129
TAFGFK
TAF
KGFK 221129Z 2212/2312 20007KT P6SM SCT150
     FM221300 19009KT P6SM BKN100
     FM221700 18014G22KT P6SM OVC040
      TEMPO 2217/2220 4SM -SN BKN015
     FM222200 18007KT P6SM BKN070
     FM230200 35005KT P6SM SCT150=

USA.gov is the U.S. government's official web portal to all federal, state and local government web resources and services.